• Join FlightAware (Why Join?)
  • Login
  • US Flag 
 
07:17AM EST


 

Airport Tracker/Info


-or-


 

Live Flight TrackerFlight Track Log ✈ N8317F ✈ 24-May-2014 ✈ KFRG - KROC

Flight Track Log - Related Links

Times and Time Zones

All times are in EDT time to prevent confusion due to time zone crossing. See the N8317F flight status page for this flight to view local times or setup timezone preferences in your user account.

Time Position Orientation Groundspeed Altitude Reporting Facility
EDT Latitude Longitude Course Direction KTS MPH feet Rate Location/Type
09:47AM 40.7500 -73.4000 308° West 77 89 1,400  Level New York TRACON
09:48AM 40.7667 -73.3667 57° Northeast 86 99 2,000 480 Climbing New York TRACON
09:49AM 40.7333 -73.3500 159° South 113 130 2,400 360 Climbing New York TRACON
09:50AM 40.7333 -73.3500 159° South 137 158 2,700 360 Climbing New York TRACON
09:51AM 40.7333 -73.3667 270° West 93 107 3,100 180 Climbing New York TRACON
09:52AM 40.7500 -73.4000 303° West 112 129 3,100  Level New York TRACON
09:53AM 40.8670 -73.6440 308° West  Level Estimated
09:53AM 40.7667 -73.3500 66° East 127 146 3,100  Level New York TRACON
09:54AM 40.7833 -73.3167 57° Northeast 124 143 3,100  Level New York TRACON
09:55AM 40.8167 -73.3167 360° North 117 135 3,100  Level New York TRACON
09:56AM 40.8500 -73.3000 21° North 118 136 3,100  Level New York TRACON
09:57AM 40.8667 -73.2833 37° Northeast 121 139 3,100  Level New York TRACON
09:58AM 40.9000 -73.2833 360° North 119 137 3,100  Level New York TRACON
09:59AM 40.9333 -73.2833 360° North 123 142 3,100  Level New York TRACON
10:00AM 40.9667 -73.2667 21° North 122 140 3,100  Level New York TRACON
10:01AM 41.0000 -73.2500 21° North 124 143 3,100 -240 Level New York TRACON
10:02AM 41.0333 -73.2500 360° North 130 150 2,700 -600 Descending New York TRACON
10:03AM 41.0500 -73.2333 37° Northeast 112 129 1,900 -660 Descending New York TRACON
10:04AM 41.0833 -73.2167 21° North 90 104 1,400 -480 Descending New York TRACON
10:05AM 41.1000 -73.2000 37° Northeast 90 104 1,000 -300 Descending New York TRACON
10:06AM 41.1167 -73.1833 37° Northeast 89 102 800 -240 Descending New York TRACON
10:07AM 41.1333 -73.1667 37° Northeast 85 98 600 -240 Descending New York TRACON
10:09AM 41.1304 -73.2331 267° West  Level FlightAware Approximate
10:16AM 41.1148 -73.5772 267° West  Level FlightAware Approximate
10:17AM 41.1125 -73.6264 266° West  Level FlightAware Approximate
10:18AM 41.1101 -73.6755 266° West  Level FlightAware Approximate
10:19AM 41.1078 -73.7247 266° West  Level FlightAware Approximate
10:20AM 41.1054 -73.7738 266° West  Level FlightAware Approximate
10:21AM 41.1030 -73.8230 266° West  Level FlightAware Approximate
10:22AM 41.1006 -73.8721 266° West  Level FlightAware Approximate
10:23AM 41.0981 -73.9212 266° West  Level FlightAware Approximate
10:24AM 41.0983 -73.9191 266° West  Level FlightAware Approximate
10:25AM 41.0959 -73.9682 266° West  Level FlightAware Approximate
10:26AM 41.0934 -74.0174 266° West  Level FlightAware Approximate
10:27AM 41.0910 -74.0665 266° West  Level FlightAware Approximate
10:28AM 41.0885 -74.1156 266° West  Level FlightAware Approximate
10:29AM 41.0860 -74.1647 266° West  Level FlightAware Approximate
10:30AM 41.0835 -74.2139 266° West  Level FlightAware Approximate
10:31AM 41.0810 -74.2630 266° West  Level FlightAware Approximate
10:32AM 41.0784 -74.3121 266° West  Level FlightAware Approximate
10:33AM 41.0759 -74.3612 266° West  Level FlightAware Approximate
10:34AM 41.0733 -74.4103 266° West  Level FlightAware Approximate
10:35AM 41.0706 -74.4594 266° West  Level FlightAware Approximate
10:36AM 41.0680 -74.5085 266° West  Level FlightAware Approximate
10:37AM 41.0760 -74.5542 301° West  Level FlightAware Approximate
10:38AM 41.0948 -74.5966 301° West  Level FlightAware Approximate
10:39AM 41.1137 -74.6391 301° West  Level FlightAware Approximate
10:40AM 41.1325 -74.6815 301° West  Level FlightAware Approximate
10:41AM 41.1500 -74.7250 298° West  Level FlightAware Approximate
10:42AM 41.1674 -74.7685 298° West  Level FlightAware Approximate
10:43AM 41.1848 -74.8120 298° West  Level FlightAware Approximate
10:44AM 41.2025 -74.8553 302° West  Level FlightAware Approximate
10:45AM 41.2221 -74.8972 302° West  Level FlightAware Approximate
10:46AM 41.2417 -74.9391 302° West  Level FlightAware Approximate
10:47AM 41.2613 -74.9811 302° West  Level FlightAware Approximate
10:48AM 41.2808 -75.0230 302° West  Level FlightAware Approximate
10:49AM 41.3004 -75.0650 302° West  Level FlightAware Approximate
10:50AM 41.3160 -75.1082 264° West  Level FlightAware Approximate
10:51AM 41.3122 -75.1573 264° West  Level FlightAware Approximate
10:52AM 41.3083 -75.2064 264° West  Level FlightAware Approximate
10:53AM 41.3044 -75.2556 264° West  Level FlightAware Approximate
10:54AM 41.3005 -75.3047 264° West  Level FlightAware Approximate
10:55AM 41.2966 -75.3538 264° West  Level FlightAware Approximate
10:56AM 41.2926 -75.4029 264° West  Level FlightAware Approximate
10:57AM 41.2886 -75.4520 264° West  Level FlightAware Approximate
10:58AM 41.2846 -75.5011 264° West  Level FlightAware Approximate
10:59AM 41.2800 -75.5501 262° West  Level FlightAware Approximate
11:00AM 41.2751 -75.5990 262° West  Level FlightAware Approximate
11:01AM 41.2702 -75.6480 262° West  Level FlightAware Approximate
11:02AM 41.2677 -75.6970 276° West  Level FlightAware Approximate
11:03AM 41.2713 -75.7461 276° West  Level FlightAware Approximate
11:04AM 41.2748 -75.7952 276° West  Level FlightAware Approximate
11:05AM 41.2784 -75.8444 276° West  Level FlightAware Approximate
11:06AM 41.2819 -75.8935 275° West  Level FlightAware Approximate
11:07AM 41.2854 -75.9427 275° West  Level FlightAware Approximate
11:08AM 41.2889 -75.9919 275° West  Level FlightAware Approximate
11:09AM 41.2924 -76.0410 275° West  Level FlightAware Approximate
11:10AM 41.2958 -76.0902 275° West  Level FlightAware Approximate
11:11AM 41.2993 -76.1394 275° West  Level FlightAware Approximate
11:12AM 41.3000 -76.1887 270° West  Level FlightAware Approximate
11:13AM 41.3000 -76.2381 270° West  Level FlightAware Approximate
11:14AM 41.3000 -76.2875 270° West  Level FlightAware Approximate
11:15AM 41.3037 -76.3366 278° West  Level FlightAware Approximate
11:16AM 41.3086 -76.3855 278° West  Level FlightAware Approximate
11:17AM 41.3135 -76.4345 278° West  Level FlightAware Approximate
11:18AM 41.3176 -76.4836 274° West  Level FlightAware Approximate
11:19AM 41.3204 -76.5328 274° West  Level FlightAware Approximate
11:20AM 41.3232 -76.5821 274° West  Level FlightAware Approximate
11:21AM 41.3259 -76.6314 274° West  Level FlightAware Approximate
11:22AM 41.3286 -76.6806 274° West  Level FlightAware Approximate
11:23AM 41.3313 -76.7299 274° West  Level FlightAware Approximate
11:24AM 41.3425 -76.7697 346° North  Level FlightAware Approximate
11:25AM 41.3785 -76.7817 346° North  Level FlightAware Approximate
11:26AM 41.4145 -76.7936 346° North  Level FlightAware Approximate
11:27AM 41.4505 -76.8056 346° North  Level FlightAware Approximate
11:28AM 41.4865 -76.8176 346° North  Level FlightAware Approximate
11:29AM 41.5225 -76.8296 346° North  Level FlightAware Approximate
11:30AM 41.5585 -76.8416 346° North  Level FlightAware Approximate
11:31AM 41.5945 -76.8537 346° North  Level FlightAware Approximate
11:32AM 41.6305 -76.8657 346° North  Level FlightAware Approximate
11:33AM 41.6669 -76.8751 349° North  Level FlightAware Approximate
11:34AM 41.7034 -76.8845 346° North  Level FlightAware Approximate
11:35AM 41.7393 -76.8969 346° North  Level FlightAware Approximate
11:36AM 41.7752 -76.9094 346° North  Level FlightAware Approximate
11:37AM 41.8111 -76.9218 346° North  Level FlightAware Approximate
11:38AM 41.8471 -76.9343 346° North  Level FlightAware Approximate
11:39AM 41.8830 -76.9468 345° North  Level FlightAware Approximate
11:40AM 41.9189 -76.9593 345° North  Level FlightAware Approximate
11:41AM 41.9548 -76.9718 345° North  Level FlightAware Approximate
11:42AM 41.9907 -76.9843 345° North  Level FlightAware Approximate
11:43AM 42.0267 -76.9968 345° North  Level FlightAware Approximate
11:44AM 42.0626 -77.0094 345° North  Level FlightAware Approximate
11:45AM 42.0961 -77.0288 325° Northwest  Level FlightAware Approximate
11:46AM 42.1265 -77.0576 325° Northwest  Level FlightAware Approximate
11:47AM 42.1568 -77.0864 325° Northwest  Level FlightAware Approximate
11:48AM 42.1872 -77.1153 325° Northwest  Level FlightAware Approximate
11:49AM 42.2175 -77.1441 325° Northwest  Level FlightAware Approximate
11:50AM 42.2478 -77.1730 325° Northwest  Level FlightAware Approximate
11:51AM 42.2781 -77.2020 325° Northwest  Level FlightAware Approximate
11:52AM 42.3084 -77.2309 325° Northwest  Level FlightAware Approximate
11:53AM 42.3387 -77.2599 325° Northwest  Level FlightAware Approximate
11:54AM 42.3690 -77.2889 325° Northwest  Level FlightAware Approximate
11:55AM 42.3993 -77.3179 325° Northwest  Level FlightAware Approximate
11:56AM 42.4295 -77.3470 325° Northwest  Level FlightAware Approximate
11:57AM 42.4597 -77.3763 324° Northwest  Level FlightAware Approximate
11:58AM 42.4895 -77.4062 324° Northwest  Level FlightAware Approximate
11:59AM 42.5200 -77.4348 326° Northwest  Level FlightAware Approximate
12:00PM 42.5509 -77.4628 326° Northwest  Level FlightAware Approximate
12:01PM 42.5817 -77.4908 326° Northwest  Level FlightAware Approximate
12:02PM 42.6126 -77.5189 326° Northwest  Level FlightAware Approximate
12:03PM 42.6434 -77.5469 326° Northwest  Level FlightAware Approximate
12:04PM 42.6742 -77.5750 326° Northwest  Level FlightAware Approximate
12:05PM 42.7044 -77.6044 324° Northwest  Level FlightAware Approximate
12:06PM 42.7343 -77.6343 324° Northwest  Level FlightAware Approximate
12:07PM 42.7642 -77.6642 324° Northwest  Level FlightAware Approximate
12:08PM 42.7953 -77.6913 334° Northwest  Level FlightAware Approximate
12:09PM 42.8287 -77.7136 334° Northwest  Level FlightAware Approximate
12:10PM 42.8652 -77.7167 North  Level FlightAware Approximate
12:11PM 42.9023 -77.7160 12° North  Level FlightAware Approximate
12:12PM 42.9385 -77.7051 12° North  Level FlightAware Approximate
12:13PM 42.9748 -77.6943 12° North  Level FlightAware Approximate
12:14PM 43.0110 -77.6834 12° North  Level FlightAware Approximate
12:15PM 43.0473 -77.6725 12° North  Level FlightAware Approximate
12:16PM 43.0839 -77.6667 North  Level FlightAware Approximate
12:17PM 43.1167 -77.6667 North  Level FlightAware Approximate
12:18PM 43.1191 -77.6719 144° Southeast  Level Estimated
12:19PM 43.1167 -77.6667 North  Level FlightAware Approximate
12:20PM 43.1191 -77.6719 144° Southeast  Level Estimated